Aérodrome :
LOGIN :

S'inscrire | Disclaimer

   EN    FR    IT 

 










Légende :    VFR   VFR Marginal   IFR   IFR Intensif   IFR Très Intensif
Visi : 
Plafond : 
>= 8 km
>= 3000ft
5 à 8 km
1000 à 3000 ft
1500m à 5 km
500 à 1000 ft
800 à 1500m
200 à 500 ft
< 800m
< 200 ft
Symboles :   Orages  Brouillard  Fortes neiges  Fortes précipitations  Vent > 20 kt
SIGMETs :   Divers  Orages  Givrage  Turbulence  Onde Orograph.  Cendres Volcan.







- Altitude de l'aérodrome : 17 ft
- Code IATA : CPH


EKCH - København - Kastrup (Copenhagen)

DERNIER METAR :
  • 292120Z 10004KT 080V150 9999 FEW020CB BKN031 05/02 Q1022 NOSIG

METARs EXPIRÉS :
  • 292050Z 13010KT 9999 -SHRA FEW020CB BKN029 05/01 Q1022 NOSIG
  • 292020Z 12013KT 9999 -SHRA FEW020CB BKN025 05/02 Q1022 NOSIG
  • 291950Z 12015KT 9999 -SHRA SCT015 SCT035 04/02 Q1021 NOSIG
  • 291920Z 11006KT 9999 FEW013 SCT035 BKN050 06/04 Q1021 NOSIG
  • 291850Z 11005KT 9999 FEW022CB BKN053 05/03 Q1021 NOSIG

TAF TAF EKCH
Valide du 29 à 18h jusqu'au 30 à 18h UTC


291711Z 2918/3018 VRB05KT 9999 SCT030
PROB40 2923/3006 0300 FG
BECMG 3007/3010 15012KT
Pas de NOTAMs connus pour ce terrain.



MET'MAP, la Météo Aéronautique d'un coup d'oeil ! - Copyright ORBIFLY Décembre 2007 - Disclaimer

ORBIFLY MET'MAP TEAM :

Programmation & Développement : Alexandra Zaïnal
Conception & Développement : Baudouin d'Aumeries
Co-Programmation & Développement : Marc-Olivier Méhu
Soutien technique & logistique : Manuel Goepfert

Contact : metmap@orbifly.com




SOURCES & CREDITS :

   NOAA